x

Southeast Bering Sea -205nm Wnw Of Dutch Harbor, Ak (46073) Wave Buoy

3:50 - Fri 9th Dec 2016 All times are UTC.

  • Sig Wave height 8.5ft
  • Swell Direction
  • Peak Period 15s
  • Average Period 8s
  • Wind
    20mph, 27mph gusts
  • Sea Temp 41°f
  • Aire Temp 35°f
  • Sea Pressure 1024.2mb

More Historic Weather Station data

Upgrade to MSW Pro to gain access to the past 30 days of data for over 8000 Wavebouys and Weather Stations around the globe.

Join Pro

Comparision Forecast

View Surf forecast
   
vie 12/09 3:50 8.5ft 15s 8s 20 27 mph 1024.2mb 41f 35f
2:50 8ft 16s 8s 18 25 mph 1024.3mb 41f 35f
1:50 8ft 16s 8s 18 25 mph 1024.2mb 41f 35f
12:50 8ft 15s 9s 13 20 mph 1024.5mb 41f 34f
11:50 9ft 16s 9s 11 18 mph 1024.5mb 41f 34f
10:50 9ft 16s 9s 11 16 mph 1024.6mb 41f 34f
9:50 8.5ft 16s 9s 11 13 mph 1024.3mb 41f 34f
8:50 8ft 16s 8s 9 13 mph 1024.3mb 41f 34f
7:50 7ft 8s 8s 9 11 mph 1024.2mb 41f 34f
6:50 6ft 9s 7s 7 9 mph 1024.3mb 41f 34f
5:50 7ft 8s 8s 7 11 mph 1023.9mb 42f 34f
4:50 6ft 9s 7s 7 11 mph 1023.9mb 41f 34f
3:50 7ft 9s 8s 7 9 mph 1024mb 41f 34f
2:50 6ft 9s 7s 4 9 mph 1024mb 41f 34f
1:50 7ft 9s 7s 2 4 mph 1024.3mb 41f 34f
12:50 7.5ft 9s 7s  -  4 mph 1024.8mb 41f 34f
jue 12/08 11:50 7.5ft 9s 8s 4 7 mph 1025.2mb 41f 34f
10:50 7.5ft 8s 7s 7 11 mph 1025.7mb 41f 34f
9:50 7ft 10s 7s 11 16 mph 1025.7mb 41f 34f
8:50 7.5ft 10s 8s 9 13 mph 1026.3mb 41f 34f
7:50 7ft 10s 7s 7 11 mph 1027.1mb 41f 34f
6:50 6.5ft 9s 7s 7 9 mph 1027.7mb 41f 33f
5:50 7ft 9s 7s 7 11 mph 1027.8mb 41f 33f
4:50 7ft 9s 7s 9 16 mph 1027.9mb 41f 33f
3:50 6ft 8s 7s 7 11 mph 1028.7mb 41f 34f
2:50 6ft 8s 7s 11 16 mph 1029mb 42f 34f
1:50 5.5ft 7s 6s 9 13 mph 1029.5mb 42f 34f
12:50 5ft 7s 6s 7 11 mph 1030.1mb 42f 34f
11:50 5.5ft 8s 6s 9 16 mph 1030.4mb 42f 34f
10:50 6ft 7s 7s 11 13 mph 1031.1mb 41f 33f
9:50 6.5ft 11s 7s 9 13 mph 1031.4mb 42f 33f
8:50 6ft 12s 7s 9 16 mph 1031.5mb 42f 33f
7:50 6.5ft 8s 7s 9 16 mph 1031.8mb 42f 33f
5:50 6.5ft 8s 7s 13 18 mph 1032.3mb 42f 34f
4:50 6.5ft 8s 7s 11 18 mph 1032.6mb 42f 34f
3:50 6.5ft 7s 7s 9 16 mph 1033mb 42f 35f
2:50 7ft 8s 7s 11 16 mph 1033.1mb 42f 35f
1:50 6.5ft 8s 7s 13 18 mph 1033mb 42f 36f
12:50 6ft 8s 6s 13 18 mph 1033.1mb 42f 37f
mié 12/07 11:50 5ft 8s 6s 13 18 mph 1033.2mb 42f 37f
10:50 4.5ft 8s 6s 11 16 mph 1033.5mb 42f 38f
9:50 4.5ft 10s 6s 11 16 mph 1034mb 42f 38f
8:50 4.5ft 10s 6s 13 18 mph 1034.3mb 42f 38f
7:50 4.5ft 9s 6s 11 16 mph 1034.3mb 42f 37f
6:50 4.5ft 7s 6s 11 13 mph 1034.1mb 42f 39f
4:50 4.5ft 7s 6s 9 11 mph 1034.2mb 42f 38f
3:50 4ft 9s 6s 11
mph
1034.3mb 42f 39f
2:50 4ft 10s 6s 9 11 mph 1034.6mb 42f 39f
1:50 4.5ft 10s 6s 9 11 mph 1035mb 42f 38f
12:50 4ft 10s 6s 11 13 mph 1035.1mb 42f 38f
11:50 4.5ft 8s 6s 9 11 mph 1035.8mb 42f 38f
10:50 4.5ft 8s 6s 11 13 mph 1035.6mb 42f 38f
9:50 4.5ft 9s 7s 9 11 mph 1035.9mb 42f 39f
8:50 5ft 10s 7s 9 11 mph 1035.7mb 42f 39f
7:50 5ft 11s 7s 7
mph
1035.5mb 42f 39f
6:50 5ft 11s 7s  -  2 mph 1035.4mb 42f 38f
5:50 5.5ft 11s 7s 9 13 mph 1035.3mb 42f 39f
4:50 5ft 10s 7s 7
mph
1035.3mb 42f 39f
3:50 5ft 11s 7s 4 7 mph 1035.2mb 42f 39f
2:50 5ft 11s 7s 7 9 mph 1035mb 42f 40f
1:50 5ft 8s 7s 7 9 mph 1034.7mb 42f 42f
12:50 5ft 11s 7s 9
mph
1034.5mb 42f 41f
mar 12/06 11:50 6ft 9s 7s 9 11 mph 1034.6mb 42f 41f
10:50 5.5ft 10s 7s 9 11 mph 1034.8mb 42f 41f
9:50 6ft 8s 7s 9 11 mph 1034.9mb 42f 42f
8:50 6ft 9s 7s 4 9 mph 1034.7mb 42f 39f
7:50 6.5ft 9s 7s 9 16 mph 1034.1mb 42f 39f
6:50 6.5ft 10s 7s 13 18 mph 1033.7mb 42f 39f
5:50 7ft 12s 7s 11 13 mph 1033.3mb 42f 39f
4:50 7ft 11s 7s 11 13 mph 1032.8mb 42f 39f
3:50 7ft 10s 7s 11 13 mph 1032.6mb 42f 39f
2:50 8ft 12s 8s 11 13 mph 1032.2mb 42f 40f
1:50 8ft 12s 8s 13 16 mph 1032.1mb 42f 40f
12:50 9ft 12s 7s 13 18 mph 1031.9mb 42f 40f
11:50 8ft 12s 7s 16 20 mph 1031.5mb 42f 39f
10:50 8.5ft 10s 8s 16 18 mph 1031mb 42f 40f
9:50 9.5ft 11s 8s 13 18 mph 1030.5mb 42f 39f
8:50 9ft 11s 8s 16 18 mph 1029.9mb 42f 40f
7:50 9.5ft 11s 7s 13 20 mph 1029.4mb 42f 40f
6:50 10ft 12s 7s 20 27 mph 1029mb 42f 39f
5:50 10ft 11s 7s 16 18 mph 1028.3mb 42f 39f
4:50 9ft 10s 7s 18 22 mph 1027.4mb 42f 40f
3:50 9ft 8s 7s 20 25 mph 1026.6mb 42f 39f
2:50 9ft 14s 7s 18 22 mph 1025.9mb 42f 39f
1:50 9.5ft 13s 7s 18 22 mph 1024.8mb 42f 40f
12:50 9ft 10s 7s 18 22 mph 1024.2mb 42f 40f
lun 12/05 11:50 9.5ft 10s 7s 18 22 mph 1023.7mb 42f 41f
10:50 9ft 14s 7s 20 22 mph 1023.2mb 42f 40f
9:50 9ft 11s 7s 18 25 mph 1022.9mb 42f 40f
8:50 10ft 15s 8s 18 22 mph 1022.2mb 42f 39f
7:50 9.5ft 15s 7s 18 22 mph 1021.5mb 42f 39f
6:50 10ft 12s 8s 20 22 mph 1020.6mb 42f 39f
5:50 10ft 14s 8s 20 25 mph 1019.7mb 42f 39f